Belden, Nebraska
Current Conditions -  °F | °C
As of 4:35 AM on Sunday 26 Oct 2014 (Local Time) from KLCG Reporting Station
Haze Haze  
Wind Chill: 50°   Ceiling: Unl
Heat Index: 50°   Visibility: 5mi
Dew Point: 37°   Wind: 10mph
Humidity: 62%   Direction: 100°E
Pressure: 29.9"   Gusts: NA
Location:  42.41°N, 97.21°W
Report Text: KLCG 260935Z AUTO 10009KT 5SM HZ CLR 10/03 A2990 RMK AO2 T01000030
Loading
Personal Weather Stations






























Interactive Weather Map
Tropical Storm Tracking
New forecast layout! Learn more

10-Day Weather Forecast

Advertisements
Track Severe Weather on mobile